sensor_id;sensor_type;location;lat;lon;timestamp;P1;durP1;ratioP1;P2;durP2;ratioP2
11703;SDS011;5908;51.354;7.458;2023-04-24T00:01:13;2.63;;;2.23;;
11703;SDS011;5908;51.354;7.458;2023-04-24T00:03:42;3.63;;;2.70;;
11703;SDS011;5908;51.354;7.458;2023-04-24T00:06:10;5.87;;;4.60;;
11703;SDS011;5908;51.354;7.458;2023-04-24T00:08:37;7.33;;;5.27;;
11703;SDS011;5908;51.354;7.458;2023-04-24T00:11:03;2.77;;;2.17;;
11703;SDS011;5908;51.354;7.458;2023-04-24T00:13:30;10.53;;;6.37;;
11703;SDS011;5908;51.354;7.458;2023-04-24T00:15:57;6.13;;;4.03;;
11703;SDS011;5908;51.354;7.458;2023-04-24T00:18:24;3.90;;;2.93;;
11703;SDS011;5908;51.354;7.458;2023-04-24T00:20:51;2.33;;;1.63;;
11703;SDS011;5908;51.354;7.458;2023-04-24T00:23:19;6.63;;;4.43;;
11703;SDS011;5908;51.354;7.458;2023-04-24T00:25:46;3.23;;;2.70;;
11703;SDS011;5908;51.354;7.458;2023-04-24T00:28:13;5.53;;;3.67;;
11703;SDS011;5908;51.354;7.458;2023-04-24T00:30:40;12.00;;;8.50;;
11703;SDS011;5908;51.354;7.458;2023-04-24T00:33:07;12.63;;;8.97;;
11703;SDS011;5908;51.354;7.458;2023-04-24T00:35:34;3.67;;;2.37;;
11703;SDS011;5908;51.354;7.458;2023-04-24T00:38:01;3.40;;;2.23;;
11703;SDS011;5908;51.354;7.458;2023-04-24T00:40:29;5.93;;;4.27;;
11703;SDS011;5908;51.354;7.458;2023-04-24T00:42:56;8.03;;;5.83;;
11703;SDS011;5908;51.354;7.458;2023-04-24T00:45:24;3.50;;;2.57;;
11703;SDS011;5908;51.354;7.458;2023-04-24T00:47:52;5.37;;;4.27;;
11703;SDS011;5908;51.354;7.458;2023-04-24T00:50:20;8.67;;;6.17;;
11703;SDS011;5908;51.354;7.458;2023-04-24T00:52:47;5.10;;;3.97;;
11703;SDS011;5908;51.354;7.458;2023-04-24T00:55:14;5.23;;;3.77;;
11703;SDS011;5908;51.354;7.458;2023-04-24T00:57:43;7.43;;;5.03;;
11703;SDS011;5908;51.354;7.458;2023-04-24T01:00:10;4.47;;;3.17;;
11703;SDS011;5908;51.354;7.458;2023-04-24T01:02:39;7.90;;;5.60;;
11703;SDS011;5908;51.354;7.458;2023-04-24T01:05:09;8.10;;;5.63;;
11703;SDS011;5908;51.354;7.458;2023-04-24T01:07:36;9.60;;;6.03;;
11703;SDS011;5908;51.354;7.458;2023-04-24T01:10:04;20.73;;;14.60;;
11703;SDS011;5908;51.354;7.458;2023-04-24T01:12:31;15.07;;;10.60;;
11703;SDS011;5908;51.354;7.458;2023-04-24T01:15:00;6.27;;;3.77;;
11703;SDS011;5908;51.354;7.458;2023-04-24T01:17:28;2.57;;;1.50;;
11703;SDS011;5908;51.354;7.458;2023-04-24T01:19:55;6.60;;;4.07;;
11703;SDS011;5908;51.354;7.458;2023-04-24T01:22:23;4.67;;;3.30;;
11703;SDS011;5908;51.354;7.458;2023-04-24T01:24:50;1.30;;;1.20;;
11703;SDS011;5908;51.354;7.458;2023-04-24T01:27:18;3.73;;;2.63;;
11703;SDS011;5908;51.354;7.458;2023-04-24T01:29:45;3.47;;;2.77;;
11703;SDS011;5908;51.354;7.458;2023-04-24T01:32:14;4.60;;;3.83;;
11703;SDS011;5908;51.354;7.458;2023-04-24T01:34:41;2.87;;;1.60;;
11703;SDS011;5908;51.354;7.458;2023-04-24T01:37:08;6.50;;;4.83;;
11703;SDS011;5908;51.354;7.458;2023-04-24T01:39:37;1.67;;;1.30;;
11703;SDS011;5908;51.354;7.458;2023-04-24T01:42:04;3.93;;;3.03;;
11703;SDS011;5908;51.354;7.458;2023-04-24T01:44:31;9.67;;;6.70;;
11703;SDS011;5908;51.354;7.458;2023-04-24T01:47:00;13.00;;;9.03;;
11703;SDS011;5908;51.354;7.458;2023-04-24T01:49:27;14.37;;;9.67;;
11703;SDS011;5908;51.354;7.458;2023-04-24T01:51:54;6.30;;;4.30;;
11703;SDS011;5908;51.354;7.458;2023-04-24T01:54:21;9.43;;;6.37;;
11703;SDS011;5908;51.354;7.458;2023-04-24T01:56:49;6.83;;;5.23;;
11703;SDS011;5908;51.354;7.458;2023-04-24T01:59:16;2.90;;;1.90;;
11703;SDS011;5908;51.354;7.458;2023-04-24T02:01:43;5.33;;;3.87;;
11703;SDS011;5908;51.354;7.458;2023-04-24T02:04:10;3.43;;;2.87;;
11703;SDS011;5908;51.354;7.458;2023-04-24T02:06:37;13.13;;;9.73;;
11703;SDS011;5908;51.354;7.458;2023-04-24T02:09:04;7.27;;;4.23;;
11703;SDS011;5908;51.354;7.458;2023-04-24T02:11:31;12.40;;;8.73;;
11703;SDS011;5908;51.354;7.458;2023-04-24T02:13:59;14.30;;;10.43;;
11703;SDS011;5908;51.354;7.458;2023-04-24T02:16:26;24.43;;;15.97;;
11703;SDS011;5908;51.354;7.458;2023-04-24T02:18:57;17.80;;;13.33;;
11703;SDS011;5908;51.354;7.458;2023-04-24T02:21:24;12.50;;;9.00;;
11703;SDS011;5908;51.354;7.458;2023-04-24T02:23:52;9.37;;;7.03;;
11703;SDS011;5908;51.354;7.458;2023-04-24T02:26:19;15.77;;;11.43;;
11703;SDS011;5908;51.354;7.458;2023-04-24T02:28:46;12.40;;;9.60;;
11703;SDS011;5908;51.354;7.458;2023-04-24T02:31:14;9.40;;;7.67;;
11703;SDS011;5908;51.354;7.458;2023-04-24T02:33:41;6.43;;;4.17;;
11703;SDS011;5908;51.354;7.458;2023-04-24T02:36:08;8.60;;;6.37;;
11703;SDS011;5908;51.354;7.458;2023-04-24T02:38:35;9.17;;;6.27;;
11703;SDS011;5908;51.354;7.458;2023-04-24T02:41:02;9.33;;;7.17;;
11703;SDS011;5908;51.354;7.458;2023-04-24T02:43:31;6.83;;;5.27;;
11703;SDS011;5908;51.354;7.458;2023-04-24T02:45:58;7.50;;;6.17;;
11703;SDS011;5908;51.354;7.458;2023-04-24T02:48:26;6.93;;;4.73;;
11703;SDS011;5908;51.354;7.458;2023-04-24T02:50:53;7.20;;;5.87;;
11703;SDS011;5908;51.354;7.458;2023-04-24T02:53:19;8.03;;;5.73;;
11703;SDS011;5908;51.354;7.458;2023-04-24T02:55:46;8.13;;;5.80;;
11703;SDS011;5908;51.354;7.458;2023-04-24T02:58:13;12.60;;;8.50;;
11703;SDS011;5908;51.354;7.458;2023-04-24T03:00:40;8.20;;;5.60;;
11703;SDS011;5908;51.354;7.458;2023-04-24T03:03:08;7.50;;;5.90;;
11703;SDS011;5908;51.354;7.458;2023-04-24T03:05:37;11.33;;;9.13;;
11703;SDS011;5908;51.354;7.458;2023-04-24T03:08:03;6.83;;;5.70;;
11703;SDS011;5908;51.354;7.458;2023-04-24T03:10:31;7.97;;;6.07;;
11703;SDS011;5908;51.354;7.458;2023-04-24T03:12:58;8.07;;;6.30;;
11703;SDS011;5908;51.354;7.458;2023-04-24T03:15:24;7.40;;;6.60;;
11703;SDS011;5908;51.354;7.458;2023-04-24T03:17:52;19.83;;;14.23;;
11703;SDS011;5908;51.354;7.458;2023-04-24T03:20:19;23.33;;;17.13;;
11703;SDS011;5908;51.354;7.458;2023-04-24T03:22:47;28.90;;;21.53;;
11703;SDS011;5908;51.354;7.458;2023-04-24T03:25:14;29.27;;;20.73;;
11703;SDS011;5908;51.354;7.458;2023-04-24T03:27:41;16.57;;;12.30;;
11703;SDS011;5908;51.354;7.458;2023-04-24T03:30:08;26.30;;;19.50;;
11703;SDS011;5908;51.354;7.458;2023-04-24T03:32:35;19.20;;;14.13;;
11703;SDS011;5908;51.354;7.458;2023-04-24T03:35:04;22.77;;;16.67;;
11703;SDS011;5908;51.354;7.458;2023-04-24T03:37:32;20.77;;;16.10;;
11703;SDS011;5908;51.354;7.458;2023-04-24T03:40:00;19.97;;;14.83;;
11703;SDS011;5908;51.354;7.458;2023-04-24T03:42:27;20.83;;;15.93;;
11703;SDS011;5908;51.354;7.458;2023-04-24T03:44:53;19.90;;;14.40;;
11703;SDS011;5908;51.354;7.458;2023-04-24T03:47:20;18.57;;;13.93;;
11703;SDS011;5908;51.354;7.458;2023-04-24T03:49:47;13.83;;;10.97;;
11703;SDS011;5908;51.354;7.458;2023-04-24T03:52:14;21.03;;;15.70;;
11703;SDS011;5908;51.354;7.458;2023-04-24T03:54:40;26.20;;;18.70;;
11703;SDS011;5908;51.354;7.458;2023-04-24T03:57:08;21.00;;;16.10;;
11703;SDS011;5908;51.354;7.458;2023-04-24T03:59:35;27.20;;;20.00;;
11703;SDS011;5908;51.354;7.458;2023-04-24T04:02:02;13.67;;;10.83;;
11703;SDS011;5908;51.354;7.458;2023-04-24T04:04:29;18.27;;;13.90;;
11703;SDS011;5908;51.354;7.458;2023-04-24T04:06:55;15.73;;;12.10;;
11703;SDS011;5908;51.354;7.458;2023-04-24T04:09:26;17.27;;;12.03;;
11703;SDS011;5908;51.354;7.458;2023-04-24T04:11:52;14.23;;;10.60;;
11703;SDS011;5908;51.354;7.458;2023-04-24T04:14:21;13.97;;;9.83;;
11703;SDS011;5908;51.354;7.458;2023-04-24T04:16:48;18.87;;;13.07;;
11703;SDS011;5908;51.354;7.458;2023-04-24T04:19:15;16.07;;;11.03;;
11703;SDS011;5908;51.354;7.458;2023-04-24T04:21:42;23.20;;;16.00;;
11703;SDS011;5908;51.354;7.458;2023-04-24T04:24:10;12.90;;;9.63;;
11703;SDS011;5908;51.354;7.458;2023-04-24T04:26:37;15.17;;;10.60;;
11703;SDS011;5908;51.354;7.458;2023-04-24T04:29:05;14.23;;;10.00;;
11703;SDS011;5908;51.354;7.458;2023-04-24T04:31:34;14.93;;;11.17;;
11703;SDS011;5908;51.354;7.458;2023-04-24T04:34:01;14.50;;;9.17;;
11703;SDS011;5908;51.354;7.458;2023-04-24T04:36:28;11.17;;;8.33;;
11703;SDS011;5908;51.354;7.458;2023-04-24T04:38:55;11.73;;;9.70;;
11703;SDS011;5908;51.354;7.458;2023-04-24T04:41:24;15.47;;;10.13;;
11703;SDS011;5908;51.354;7.458;2023-04-24T04:43:51;12.73;;;9.30;;
11703;SDS011;5908;51.354;7.458;2023-04-24T04:46:18;13.53;;;10.37;;
11703;SDS011;5908;51.354;7.458;2023-04-24T04:48:46;16.47;;;11.30;;
11703;SDS011;5908;51.354;7.458;2023-04-24T04:51:12;19.20;;;13.10;;
11703;SDS011;5908;51.354;7.458;2023-04-24T04:53:39;15.33;;;10.53;;
11703;SDS011;5908;51.354;7.458;2023-04-24T04:56:06;13.67;;;10.23;;
11703;SDS011;5908;51.354;7.458;2023-04-24T04:58:33;13.00;;;10.50;;
11703;SDS011;5908;51.354;7.458;2023-04-24T05:00:59;14.93;;;11.60;;
11703;SDS011;5908;51.354;7.458;2023-04-24T05:03:27;15.83;;;11.77;;
11703;SDS011;5908;51.354;7.458;2023-04-24T05:05:55;13.10;;;10.67;;
11703;SDS011;5908;51.354;7.458;2023-04-24T05:08:23;13.40;;;10.03;;
11703;SDS011;5908;51.354;7.458;2023-04-24T05:10:50;10.53;;;9.03;;
11703;SDS011;5908;51.354;7.458;2023-04-24T05:13:17;11.90;;;9.23;;
11703;SDS011;5908;51.354;7.458;2023-04-24T05:15:43;17.10;;;12.93;;
11703;SDS011;5908;51.354;7.458;2023-04-24T05:18:10;15.43;;;10.07;;
11703;SDS011;5908;51.354;7.458;2023-04-24T05:20:37;14.03;;;11.30;;
11703;SDS011;5908;51.354;7.458;2023-04-24T05:23:05;13.40;;;10.57;;
11703;SDS011;5908;51.354;7.458;2023-04-24T05:25:32;12.43;;;9.07;;
11703;SDS011;5908;51.354;7.458;2023-04-24T05:28:00;15.30;;;11.47;;
11703;SDS011;5908;51.354;7.458;2023-04-24T05:30:27;10.97;;;9.10;;
11703;SDS011;5908;51.354;7.458;2023-04-24T05:32:54;20.23;;;14.07;;
11703;SDS011;5908;51.354;7.458;2023-04-24T05:35:21;22.83;;;15.57;;
11703;SDS011;5908;51.354;7.458;2023-04-24T05:37:47;15.63;;;12.23;;
11703;SDS011;5908;51.354;7.458;2023-04-24T05:40:16;14.13;;;10.03;;
11703;SDS011;5908;51.354;7.458;2023-04-24T05:42:43;18.63;;;14.33;;
11703;SDS011;5908;51.354;7.458;2023-04-24T05:45:09;25.33;;;18.13;;
11703;SDS011;5908;51.354;7.458;2023-04-24T05:47:41;12.37;;;9.60;;
11703;SDS011;5908;51.354;7.458;2023-04-24T05:50:08;22.67;;;16.07;;
11703;SDS011;5908;51.354;7.458;2023-04-24T05:52:36;12.07;;;9.03;;
11703;SDS011;5908;51.354;7.458;2023-04-24T05:55:03;16.97;;;13.07;;
11703;SDS011;5908;51.354;7.458;2023-04-24T05:57:32;13.20;;;9.30;;
11703;SDS011;5908;51.354;7.458;2023-04-24T05:59:58;21.33;;;15.70;;
11703;SDS011;5908;51.354;7.458;2023-04-24T06:02:25;23.73;;;17.33;;
11703;SDS011;5908;51.354;7.458;2023-04-24T06:04:52;14.70;;;10.17;;
11703;SDS011;5908;51.354;7.458;2023-04-24T06:07:20;14.03;;;10.10;;
11703;SDS011;5908;51.354;7.458;2023-04-24T06:09:47;23.43;;;17.43;;
11703;SDS011;5908;51.354;7.458;2023-04-24T06:12:13;11.30;;;8.63;;
11703;SDS011;5908;51.354;7.458;2023-04-24T06:14:42;15.67;;;11.43;;
11703;SDS011;5908;51.354;7.458;2023-04-24T06:17:08;17.80;;;13.23;;
11703;SDS011;5908;51.354;7.458;2023-04-24T06:19:35;21.00;;;16.10;;
11703;SDS011;5908;51.354;7.458;2023-04-24T06:22:02;27.57;;;20.37;;
11703;SDS011;5908;51.354;7.458;2023-04-24T06:24:29;11.97;;;9.00;;
11703;SDS011;5908;51.354;7.458;2023-04-24T06:26:56;13.10;;;9.60;;
11703;SDS011;5908;51.354;7.458;2023-04-24T06:29:23;21.37;;;15.00;;
11703;SDS011;5908;51.354;7.458;2023-04-24T06:31:52;11.23;;;8.50;;
11703;SDS011;5908;51.354;7.458;2023-04-24T06:34:18;10.97;;;8.60;;
11703;SDS011;5908;51.354;7.458;2023-04-24T06:36:46;16.23;;;12.60;;
11703;SDS011;5908;51.354;7.458;2023-04-24T06:39:13;23.40;;;15.83;;
11703;SDS011;5908;51.354;7.458;2023-04-24T06:41:39;31.23;;;22.27;;
11703;SDS011;5908;51.354;7.458;2023-04-24T06:44:06;11.57;;;9.60;;
11703;SDS011;5908;51.354;7.458;2023-04-24T06:46:33;9.53;;;7.43;;
11703;SDS011;5908;51.354;7.458;2023-04-24T06:49:01;15.47;;;11.27;;
11703;SDS011;5908;51.354;7.458;2023-04-24T06:51:28;12.03;;;9.60;;
11703;SDS011;5908;51.354;7.458;2023-04-24T06:53:56;10.77;;;8.50;;
11703;SDS011;5908;51.354;7.458;2023-04-24T06:56:23;11.57;;;9.20;;
11703;SDS011;5908;51.354;7.458;2023-04-24T06:58:50;8.93;;;7.80;;
11703;SDS011;5908;51.354;7.458;2023-04-24T07:01:17;10.13;;;8.60;;
11703;SDS011;5908;51.354;7.458;2023-04-24T07:03:44;23.17;;;17.63;;
11703;SDS011;5908;51.354;7.458;2023-04-24T07:06:12;22.30;;;16.70;;
11703;SDS011;5908;51.354;7.458;2023-04-24T07:08:39;13.07;;;10.83;;
11703;SDS011;5908;51.354;7.458;2023-04-24T07:11:07;11.20;;;9.13;;
11703;SDS011;5908;51.354;7.458;2023-04-24T07:13:34;12.27;;;10.23;;
11703;SDS011;5908;51.354;7.458;2023-04-24T07:16:01;9.57;;;7.30;;
11703;SDS011;5908;51.354;7.458;2023-04-24T07:18:28;9.80;;;7.47;;
11703;SDS011;5908;51.354;7.458;2023-04-24T07:20:55;14.03;;;10.43;;
11703;SDS011;5908;51.354;7.458;2023-04-24T07:23:23;10.20;;;8.13;;
11703;SDS011;5908;51.354;7.458;2023-04-24T07:25:50;7.73;;;6.73;;
11703;SDS011;5908;51.354;7.458;2023-04-24T07:28:16;9.30;;;7.30;;
11703;SDS011;5908;51.354;7.458;2023-04-24T07:30:43;8.50;;;6.30;;
11703;SDS011;5908;51.354;7.458;2023-04-24T07:33:10;9.43;;;7.50;;
11703;SDS011;5908;51.354;7.458;2023-04-24T07:35:38;7.73;;;6.17;;
11703;SDS011;5908;51.354;7.458;2023-04-24T07:38:05;6.47;;;5.30;;
11703;SDS011;5908;51.354;7.458;2023-04-24T07:40:33;6.67;;;5.03;;
11703;SDS011;5908;51.354;7.458;2023-04-24T07:42:59;6.87;;;5.77;;
11703;SDS011;5908;51.354;7.458;2023-04-24T07:45:26;4.83;;;3.83;;
11703;SDS011;5908;51.354;7.458;2023-04-24T07:47:53;7.27;;;5.57;;
11703;SDS011;5908;51.354;7.458;2023-04-24T07:50:20;4.50;;;4.10;;
11703;SDS011;5908;51.354;7.458;2023-04-24T07:52:47;5.17;;;3.83;;
11703;SDS011;5908;51.354;7.458;2023-04-24T07:55:14;5.33;;;4.50;;
11703;SDS011;5908;51.354;7.458;2023-04-24T07:57:42;3.20;;;2.87;;
11703;SDS011;5908;51.354;7.458;2023-04-24T08:00:09;5.23;;;4.03;;
11703;SDS011;5908;51.354;7.458;2023-04-24T08:02:37;2.43;;;2.23;;
11703;SDS011;5908;51.354;7.458;2023-04-24T08:05:04;3.70;;;3.00;;
11703;SDS011;5908;51.354;7.458;2023-04-24T08:07:31;4.00;;;3.23;;
11703;SDS011;5908;51.354;7.458;2023-04-24T08:09:58;4.80;;;3.80;;
11703;SDS011;5908;51.354;7.458;2023-04-24T08:12:25;2.60;;;2.17;;
11703;SDS011;5908;51.354;7.458;2023-04-24T08:14:55;2.30;;;2.10;;
11703;SDS011;5908;51.354;7.458;2023-04-24T08:17:23;3.80;;;2.40;;
11703;SDS011;5908;51.354;7.458;2023-04-24T08:19:50;2.70;;;2.07;;
11703;SDS011;5908;51.354;7.458;2023-04-24T08:22:18;4.00;;;3.23;;
11703;SDS011;5908;51.354;7.458;2023-04-24T08:24:45;7.40;;;4.83;;
11703;SDS011;5908;51.354;7.458;2023-04-24T08:27:12;9.23;;;7.33;;
11703;SDS011;5908;51.354;7.458;2023-04-24T08:29:38;4.07;;;3.40;;
11703;SDS011;5908;51.354;7.458;2023-04-24T08:32:07;3.37;;;2.77;;
11703;SDS011;5908;51.354;7.458;2023-04-24T08:34:33;1.53;;;1.23;;
11703;SDS011;5908;51.354;7.458;2023-04-24T08:37:00;2.30;;;1.70;;
11703;SDS011;5908;51.354;7.458;2023-04-24T08:39:27;2.67;;;1.83;;
11703;SDS011;5908;51.354;7.458;2023-04-24T08:41:54;2.43;;;1.63;;
11703;SDS011;5908;51.354;7.458;2023-04-24T08:44:22;2.40;;;1.90;;
11703;SDS011;5908;51.354;7.458;2023-04-24T08:46:48;1.87;;;1.60;;
11703;SDS011;5908;51.354;7.458;2023-04-24T08:49:17;1.77;;;1.47;;
11703;SDS011;5908;51.354;7.458;2023-04-24T08:51:45;4.30;;;3.30;;
11703;SDS011;5908;51.354;7.458;2023-04-24T08:54:13;2.33;;;1.87;;
11703;SDS011;5908;51.354;7.458;2023-04-24T08:56:40;5.23;;;3.70;;
11703;SDS011;5908;51.354;7.458;2023-04-24T08:59:09;2.50;;;1.90;;
11703;SDS011;5908;51.354;7.458;2023-04-24T09:01:37;2.70;;;2.10;;
11703;SDS011;5908;51.354;7.458;2023-04-24T09:04:05;2.97;;;2.40;;
11703;SDS011;5908;51.354;7.458;2023-04-24T09:06:36;2.53;;;1.93;;
11703;SDS011;5908;51.354;7.458;2023-04-24T09:09:03;2.60;;;1.90;;
11703;SDS011;5908;51.354;7.458;2023-04-24T09:11:30;2.33;;;1.73;;
11703;SDS011;5908;51.354;7.458;2023-04-24T09:13:57;1.10;;;0.80;;
11703;SDS011;5908;51.354;7.458;2023-04-24T09:16:24;3.43;;;2.17;;
11703;SDS011;5908;51.354;7.458;2023-04-24T09:18:52;1.53;;;1.27;;
11703;SDS011;5908;51.354;7.458;2023-04-24T09:21:20;3.07;;;2.50;;
11703;SDS011;5908;51.354;7.458;2023-04-24T09:23:58;2.23;;;1.73;;
11703;SDS011;5908;51.354;7.458;2023-04-24T09:26:26;2.30;;;1.70;;
11703;SDS011;5908;51.354;7.458;2023-04-24T09:28:56;1.60;;;1.43;;
11703;SDS011;5908;51.354;7.458;2023-04-24T09:31:24;2.70;;;1.73;;
11703;SDS011;5908;51.354;7.458;2023-04-24T09:33:54;1.80;;;1.47;;
11703;SDS011;5908;51.354;7.458;2023-04-24T09:36:26;1.23;;;1.13;;
11703;SDS011;5908;51.354;7.458;2023-04-24T09:38:57;3.42;;;2.75;;
11703;SDS011;5908;51.354;7.458;2023-04-24T09:41:25;1.63;;;1.37;;
11703;SDS011;5908;51.354;7.458;2023-04-24T09:43:53;1.97;;;1.60;;
11703;SDS011;5908;51.354;7.458;2023-04-24T09:46:20;1.80;;;1.33;;
11703;SDS011;5908;51.354;7.458;2023-04-24T09:48:47;1.73;;;1.30;;
11703;SDS011;5908;51.354;7.458;2023-04-24T09:51:14;1.60;;;1.17;;
11703;SDS011;5908;51.354;7.458;2023-04-24T09:53:45;2.07;;;1.00;;
11703;SDS011;5908;51.354;7.458;2023-04-24T09:56:14;2.00;;;1.17;;
11703;SDS011;5908;51.354;7.458;2023-04-24T09:58:41;2.30;;;1.90;;
11703;SDS011;5908;51.354;7.458;2023-04-24T10:01:07;3.67;;;2.20;;
11703;SDS011;5908;51.354;7.458;2023-04-24T10:03:34;3.50;;;2.60;;
11703;SDS011;5908;51.354;7.458;2023-04-24T10:06:01;3.13;;;2.80;;
11703;SDS011;5908;51.354;7.458;2023-04-24T10:08:33;3.10;;;2.80;;
11703;SDS011;5908;51.354;7.458;2023-04-24T10:11:00;3.43;;;2.50;;
11703;SDS011;5908;51.354;7.458;2023-04-24T10:13:29;3.33;;;2.30;;
11703;SDS011;5908;51.354;7.458;2023-04-24T10:15:58;3.20;;;2.23;;
11703;SDS011;5908;51.354;7.458;2023-04-24T10:18:26;2.87;;;2.20;;
11703;SDS011;5908;51.354;7.458;2023-04-24T10:20:53;4.00;;;2.20;;
11703;SDS011;5908;51.354;7.458;2023-04-24T10:23:21;3.13;;;2.30;;
11703;SDS011;5908;51.354;7.458;2023-04-24T10:25:48;4.10;;;3.00;;
11703;SDS011;5908;51.354;7.458;2023-04-24T10:28:16;3.90;;;2.60;;
11703;SDS011;5908;51.354;7.458;2023-04-24T10:30:46;3.53;;;2.67;;
11703;SDS011;5908;51.354;7.458;2023-04-24T10:33:14;2.90;;;2.40;;
11703;SDS011;5908;51.354;7.458;2023-04-24T10:35:44;2.67;;;2.43;;
11703;SDS011;5908;51.354;7.458;2023-04-24T10:38:14;3.30;;;2.57;;
11703;SDS011;5908;51.354;7.458;2023-04-24T10:40:44;3.50;;;2.40;;
11703;SDS011;5908;51.354;7.458;2023-04-24T10:43:11;3.47;;;2.33;;
11703;SDS011;5908;51.354;7.458;2023-04-24T10:48:44;3.63;;;2.70;;
11703;SDS011;5908;51.354;7.458;2023-04-24T10:51:19;5.27;;;3.27;;
11703;SDS011;5908;51.354;7.458;2023-04-24T10:53:49;4.87;;;3.50;;
11703;SDS011;5908;51.354;7.458;2023-04-24T10:56:16;9.73;;;6.57;;
11703;SDS011;5908;51.354;7.458;2023-04-24T10:58:44;7.07;;;4.30;;
11703;SDS011;5908;51.354;7.458;2023-04-24T11:01:24;6.83;;;4.27;;
11703;SDS011;5908;51.354;7.458;2023-04-24T11:03:55;7.20;;;4.30;;
11703;SDS011;5908;51.354;7.458;2023-04-24T11:06:29;5.67;;;4.13;;
11703;SDS011;5908;51.354;7.458;2023-04-24T11:09:01;6.90;;;3.80;;
11703;SDS011;5908;51.354;7.458;2023-04-24T11:11:30;9.23;;;5.43;;
11703;SDS011;5908;51.354;7.458;2023-04-24T11:14:01;7.63;;;4.10;;
11703;SDS011;5908;51.354;7.458;2023-04-24T11:16:33;7.37;;;4.53;;
11703;SDS011;5908;51.354;7.458;2023-04-24T11:19:18;11.07;;;5.40;;
11703;SDS011;5908;51.354;7.458;2023-04-24T11:21:54;9.00;;;6.10;;
11703;SDS011;5908;51.354;7.458;2023-04-24T11:24:29;7.83;;;5.30;;
11703;SDS011;5908;51.354;7.458;2023-04-24T11:26:57;6.93;;;4.83;;
11703;SDS011;5908;51.354;7.458;2023-04-24T11:29:39;7.37;;;5.20;;
11703;SDS011;5908;51.354;7.458;2023-04-24T11:32:14;9.20;;;5.60;;
11703;SDS011;5908;51.354;7.458;2023-04-24T11:34:46;8.10;;;4.30;;
11703;SDS011;5908;51.354;7.458;2023-04-24T11:37:14;7.20;;;4.50;;
11703;SDS011;5908;51.354;7.458;2023-04-24T11:39:41;7.03;;;4.47;;
11703;SDS011;5908;51.354;7.458;2023-04-24T11:42:08;12.90;;;6.57;;
11703;SDS011;5908;51.354;7.458;2023-04-24T11:44:35;8.63;;;5.93;;
11703;SDS011;5908;51.354;7.458;2023-04-24T11:47:03;9.93;;;5.10;;
11703;SDS011;5908;51.354;7.458;2023-04-24T11:49:30;10.93;;;5.83;;
11703;SDS011;5908;51.354;7.458;2023-04-24T11:51:58;11.07;;;6.30;;
11703;SDS011;5908;51.354;7.458;2023-04-24T11:54:26;11.90;;;8.20;;
11703;SDS011;5908;51.354;7.458;2023-04-24T11:56:52;9.43;;;6.63;;
11703;SDS011;5908;51.354;7.458;2023-04-24T11:59:19;12.10;;;8.00;;
11703;SDS011;5908;51.354;7.458;2023-04-24T12:01:46;13.80;;;8.10;;
11703;SDS011;5908;51.354;7.458;2023-04-24T12:04:14;11.07;;;7.10;;
11703;SDS011;5908;51.354;7.458;2023-04-24T12:09:28;10.03;;;6.60;;
11703;SDS011;5908;51.354;7.458;2023-04-24T12:11:55;11.57;;;7.07;;
11703;SDS011;5908;51.354;7.458;2023-04-24T12:14:22;12.07;;;6.40;;
11703;SDS011;5908;51.354;7.458;2023-04-24T12:16:50;8.80;;;5.63;;
11703;SDS011;5908;51.354;7.458;2023-04-24T12:19:18;10.97;;;6.23;;
11703;SDS011;5908;51.354;7.458;2023-04-24T12:21:58;11.50;;;6.03;;
11703;SDS011;5908;51.354;7.458;2023-04-24T12:24:27;10.27;;;5.40;;
11703;SDS011;5908;51.354;7.458;2023-04-24T12:26:55;7.33;;;4.40;;
11703;SDS011;5908;51.354;7.458;2023-04-24T12:29:23;9.83;;;4.87;;
11703;SDS011;5908;51.354;7.458;2023-04-24T12:31:50;9.73;;;4.60;;
11703;SDS011;5908;51.354;7.458;2023-04-24T12:34:18;10.83;;;4.50;;
11703;SDS011;5908;51.354;7.458;2023-04-24T12:36:45;14.10;;;8.13;;
11703;SDS011;5908;51.354;7.458;2023-04-24T12:39:15;11.05;;;5.20;;
11703;SDS011;5908;51.354;7.458;2023-04-24T12:41:54;7.90;;;4.40;;
11703;SDS011;5908;51.354;7.458;2023-04-24T12:44:28;6.70;;;3.63;;
11703;SDS011;5908;51.354;7.458;2023-04-24T12:46:56;7.77;;;4.20;;
11703;SDS011;5908;51.354;7.458;2023-04-24T12:49:23;7.63;;;3.77;;
11703;SDS011;5908;51.354;7.458;2023-04-24T12:51:49;7.93;;;4.00;;
11703;SDS011;5908;51.354;7.458;2023-04-24T12:54:16;9.33;;;4.27;;
11703;SDS011;5908;51.354;7.458;2023-04-24T12:56:43;8.87;;;3.90;;
11703;SDS011;5908;51.354;7.458;2023-04-24T12:59:11;6.67;;;3.73;;
11703;SDS011;5908;51.354;7.458;2023-04-24T13:01:37;10.97;;;4.20;;
11703;SDS011;5908;51.354;7.458;2023-04-24T13:04:04;8.47;;;5.17;;
11703;SDS011;5908;51.354;7.458;2023-04-24T13:06:31;10.93;;;6.23;;
11703;SDS011;5908;51.354;7.458;2023-04-24T13:08:58;7.20;;;3.83;;
11703;SDS011;5908;51.354;7.458;2023-04-24T13:11:25;6.73;;;3.90;;
11703;SDS011;5908;51.354;7.458;2023-04-24T13:13:51;5.10;;;3.30;;
11703;SDS011;5908;51.354;7.458;2023-04-24T13:16:19;8.13;;;3.67;;
11703;SDS011;5908;51.354;7.458;2023-04-24T13:18:48;10.10;;;4.20;;
11703;SDS011;5908;51.354;7.458;2023-04-24T13:21:14;7.53;;;4.40;;
11703;SDS011;5908;51.354;7.458;2023-04-24T13:23:41;9.97;;;5.07;;
11703;SDS011;5908;51.354;7.458;2023-04-24T13:26:07;7.07;;;4.33;;
11703;SDS011;5908;51.354;7.458;2023-04-24T13:28:34;10.03;;;5.27;;
11703;SDS011;5908;51.354;7.458;2023-04-24T13:31:01;7.63;;;4.10;;
11703;SDS011;5908;51.354;7.458;2023-04-24T13:33:29;7.45;;;4.60;;
11703;SDS011;5908;51.354;7.458;2023-04-24T13:35:56;7.65;;;3.72;;
11703;SDS011;5908;51.354;7.458;2023-04-24T13:38:23;6.60;;;4.00;;
11703;SDS011;5908;51.354;7.458;2023-04-24T13:40:49;9.07;;;3.93;;
11703;SDS011;5908;51.354;7.458;2023-04-24T13:43:16;8.98;;;3.65;;
11703;SDS011;5908;51.354;7.458;2023-04-24T13:45:43;5.40;;;3.37;;
11703;SDS011;5908;51.354;7.458;2023-04-24T13:48:09;7.00;;;3.92;;
11703;SDS011;5908;51.354;7.458;2023-04-24T13:50:37;6.63;;;3.10;;
11703;SDS011;5908;51.354;7.458;2023-04-24T13:53:04;7.20;;;3.50;;
11703;SDS011;5908;51.354;7.458;2023-04-24T13:55:31;7.63;;;3.17;;
11703;SDS011;5908;51.354;7.458;2023-04-24T13:57:57;4.47;;;2.77;;
11703;SDS011;5908;51.354;7.458;2023-04-24T14:00:24;9.00;;;3.50;;
11703;SDS011;5908;51.354;7.458;2023-04-24T14:02:51;8.43;;;2.63;;
11703;SDS011;5908;51.354;7.458;2023-04-24T14:05:18;3.07;;;2.20;;
11703;SDS011;5908;51.354;7.458;2023-04-24T14:07:47;6.53;;;3.03;;
11703;SDS011;5908;51.354;7.458;2023-04-24T14:10:14;5.13;;;2.57;;
11703;SDS011;5908;51.354;7.458;2023-04-24T14:12:41;7.40;;;3.13;;
11703;SDS011;5908;51.354;7.458;2023-04-24T14:15:08;11.93;;;6.70;;
11703;SDS011;5908;51.354;7.458;2023-04-24T14:17:35;4.13;;;2.30;;
11703;SDS011;5908;51.354;7.458;2023-04-24T14:20:02;5.57;;;2.50;;
11703;SDS011;5908;51.354;7.458;2023-04-24T14:22:30;4.47;;;2.30;;
11703;SDS011;5908;51.354;7.458;2023-04-24T14:24:58;5.18;;;2.05;;
11703;SDS011;5908;51.354;7.458;2023-04-24T14:27:25;3.70;;;2.00;;
11703;SDS011;5908;51.354;7.458;2023-04-24T14:29:52;2.83;;;2.17;;
11703;SDS011;5908;51.354;7.458;2023-04-24T14:32:19;5.57;;;2.70;;
11703;SDS011;5908;51.354;7.458;2023-04-24T14:34:46;4.50;;;3.20;;
11703;SDS011;5908;51.354;7.458;2023-04-24T14:37:13;8.63;;;4.93;;
11703;SDS011;5908;51.354;7.458;2023-04-24T14:39:39;9.32;;;5.07;;
11703;SDS011;5908;51.354;7.458;2023-04-24T14:42:07;37.80;;;25.73;;
11703;SDS011;5908;51.354;7.458;2023-04-24T14:44:34;24.40;;;16.00;;
11703;SDS011;5908;51.354;7.458;2023-04-24T14:47:01;13.23;;;8.32;;
11703;SDS011;5908;51.354;7.458;2023-04-24T14:49:28;11.73;;;7.30;;
11703;SDS011;5908;51.354;7.458;2023-04-24T14:51:54;3.72;;;2.22;;
11703;SDS011;5908;51.354;7.458;2023-04-24T14:54:21;6.63;;;4.07;;
11703;SDS011;5908;51.354;7.458;2023-04-24T14:56:48;10.43;;;6.35;;
11703;SDS011;5908;51.354;7.458;2023-04-24T14:59:16;10.10;;;6.93;;
11703;SDS011;5908;51.354;7.458;2023-04-24T15:01:43;5.20;;;2.35;;